Hoover, AL (35244)

5:35 PM CDT on August 27, 2015 (GMT -0500)
Cahaba River Estates | | Change Station
CLOSE
Current Station
Personal Weather Station
Location: Hoover, AL
Elevation: 463 ft
Nearby Weather Stations

Elev 463 ft 33.35 °N, 86.83 °W | Updated 3 seconds ago

Partly Cloudy
Partly Cloudy
82.0 °F
Feels Like 85 °F
N
0.0
Wind Variable Wind from NNE
Gusts 0.0 mph

Today
High -- | Low -- °F
--% Chance of Precip.
Yesterday
High -- | Low -- °F
Precip. -- in
6:17 AM 7:19 PM
Waxing Gibbous, 95% visible
Pressure 29.96 in
Visibility 10.0 miles
Clouds Few 5500 ft
Heat Index 85 °F
Dew Point 68 °F
Humidity 62%
Rainfall 0.00 in
Snow Depth Not available.
UV 3 out of 12
Pollen 8.40 out of 12
Air Quality Not available.
Flu Activity Not available.
METAR KEET 272153Z AUTO 02004KT 10SM FEW055 30/18 A2998 RMK AO2 SLP144 T03000178
Pressure 29.96 in
Visibility 10.0 miles
Clouds Few 5500 ft
Heat Index 85 °F
Dew Point 68 °F
Humidity 62%
Rainfall 0.00 in
Snow Depth Not available.
UV 3 out of 12
Pollen 8.40 out of 12
Air Quality Not available.
Flu Activity Not available.
METAR KEET 272153Z AUTO 02004KT 10SM FEW055 30/18 A2998 RMK AO2 SLP144 T03000178

10-Day Weather Forecast

×

Almanac

Astronomy

Aug. 27, 2015 Rise Set
Actual Time
Civil Twilight
Nautical Twilight
Astronomical Twilight
Moon
Length of Visible Light
Length of Day
Tomorrow will be .
, % of the Moon is Illuminated

Today's Extremes

State Highs State Lows

Community

WunderPhotos

Upload Photos

1,850,252 photos uploaded!

WunderBlogs® & News

Nearby

Air Quality

  Air Quality AQ Index Pollutant
Not available.

Snow Depth

Station Depth Elevation

Earthquake Activity

City Distance Mag. Time & Date
Minimum magnitude displayed is 2.5.

Coastal Water Temperatures

Place Temperature

Stations

Nearby Weather Stations

Station Location Temp. Windchill Dew Point Humidity Wind Precip. Elev Updated Type